createdAt,value
2019-05-29T00:00:34.306Z,13.32
2019-05-29T00:03:02.780Z,13.38
2019-05-29T00:05:31.283Z,13.36
2019-05-29T00:07:59.756Z,13.24
2019-05-29T00:10:28.262Z,13.14
2019-05-29T00:12:56.736Z,13.07
2019-05-29T00:15:25.235Z,12.95
2019-05-29T00:17:53.714Z,12.76
2019-05-29T00:20:22.211Z,12.84
2019-05-29T00:22:50.696Z,12.92
2019-05-29T00:25:19.214Z,12.82
2019-05-29T00:27:47.689Z,12.78
2019-05-29T00:30:17.002Z,12.64
2019-05-29T00:32:45.499Z,12.48
2019-05-29T00:35:14.292Z,12.38
2019-05-29T00:37:42.827Z,12.31
2019-05-29T00:40:11.469Z,12.36
2019-05-29T00:42:39.953Z,12.36
2019-05-29T00:45:09.662Z,12.30
2019-05-29T00:47:38.173Z,12.14
2019-05-29T00:50:08.472Z,12.03
2019-05-29T00:52:37.004Z,12.20
2019-05-29T00:55:06.646Z,12.18
2019-05-29T00:57:35.118Z,12.13
2019-05-29T01:00:04.853Z,12.15
2019-05-29T01:02:33.334Z,12.12
2019-05-29T01:05:01.842Z,11.94
2019-05-29T01:07:30.313Z,12.13
2019-05-29T01:09:58.812Z,12.07
2019-05-29T01:12:27.303Z,12.21
2019-05-29T01:14:55.809Z,12.03
2019-05-29T01:17:24.280Z,11.98
2019-05-29T01:19:52.786Z,11.89
2019-05-29T01:22:22.336Z,11.82
2019-05-29T01:24:50.942Z,12.01
2019-05-29T01:27:19.416Z,11.89
2019-05-29T01:29:47.906Z,11.95
2019-05-29T01:32:17.505Z,11.96
2019-05-29T01:34:46.041Z,11.86
2019-05-29T01:37:14.567Z,11.92
2019-05-29T01:39:43.090Z,11.87
2019-05-29T01:42:11.590Z,11.75
2019-05-29T01:44:40.064Z,11.67
2019-05-29T01:47:08.558Z,11.66
2019-05-29T01:49:37.031Z,11.71
2019-05-29T01:52:05.528Z,11.71
2019-05-29T01:54:34.036Z,11.71
2019-05-29T01:57:02.500Z,11.50
2019-05-29T01:59:30.970Z,11.44
2019-05-29T02:01:59.477Z,11.47
2019-05-29T02:04:28.212Z,11.59
2019-05-29T02:06:56.732Z,11.56
2019-05-29T02:09:25.203Z,11.47
2019-05-29T02:11:53.709Z,11.50
2019-05-29T02:14:22.747Z,11.36
2019-05-29T02:16:51.265Z,11.36
2019-05-29T02:19:20.006Z,11.33
2019-05-29T02:21:48.517Z,11.35
2019-05-29T02:24:17.094Z,11.33
2019-05-29T02:26:45.576Z,11.34
2019-05-29T02:29:14.043Z,11.35
2019-05-29T02:31:42.548Z,11.26
2019-05-29T02:34:11.014Z,11.27
2019-05-29T02:36:39.514Z,11.13
2019-05-29T02:39:08.621Z,11.23
2019-05-29T02:41:37.285Z,11.00
2019-05-29T02:44:05.831Z,11.06
2019-05-29T02:46:34.333Z,11.11
2019-05-29T02:49:03.289Z,11.15
2019-05-29T02:51:32.270Z,11.07
2019-05-29T02:54:00.733Z,11.05
2019-05-29T02:56:31.121Z,11.10
2019-05-29T02:58:59.428Z,11.12
2019-05-29T03:01:29.580Z,11.03
2019-05-29T03:03:58.420Z,11.07
2019-05-29T03:06:28.087Z,10.97
2019-05-29T03:08:56.710Z,10.97
2019-05-29T03:11:27.060Z,11.14
2019-05-29T03:13:55.732Z,10.94
2019-05-29T03:16:26.106Z,10.95
2019-05-29T03:18:54.406Z,10.99
2019-05-29T03:21:24.099Z,11.07
2019-05-29T03:23:52.679Z,11.01
2019-05-29T03:26:24.619Z,11.11
2019-05-29T03:28:51.373Z,10.91
2019-05-29T03:31:19.845Z,10.95
2019-05-29T03:33:50.645Z,10.93
2019-05-29T03:36:18.538Z,11.08
2019-05-29T03:38:47.037Z,10.92
2019-05-29T03:41:15.513Z,10.83
2019-05-29T03:43:44.012Z,10.98
2019-05-29T03:46:29.331Z,10.99
2019-05-29T03:48:42.977Z,11.04
2019-05-29T03:51:11.516Z,10.83
2019-05-29T03:53:40.036Z,10.97
2019-05-29T03:56:08.510Z,11.20
2019-05-29T03:58:37.783Z,11.19
2019-05-29T04:01:06.371Z,11.12
2019-05-29T04:03:35.603Z,11.06
2019-05-29T04:06:05.618Z,10.82
2019-05-29T04:08:35.506Z,10.98
2019-05-29T04:11:04.256Z,10.85
2019-05-29T04:13:34.053Z,11.02
2019-05-29T04:16:03.770Z,11.27
2019-05-29T04:18:35.827Z,11.37
2019-05-29T04:21:04.516Z,11.28
2019-05-29T04:23:36.115Z,11.42
2019-05-29T04:26:05.027Z,11.38
2019-05-29T04:28:34.898Z,11.40
2019-05-29T04:31:03.780Z,11.65
2019-05-29T04:33:32.787Z,11.55
2019-05-29T04:36:02.456Z,11.52
2019-05-29T04:38:33.194Z,11.63
2019-05-29T04:41:01.153Z,11.63
2019-05-29T04:43:31.157Z,11.31
2019-05-29T04:45:59.835Z,11.57
2019-05-29T04:48:29.334Z,11.50
2019-05-29T04:50:58.518Z,11.63
2019-05-29T04:53:27.001Z,11.41
2019-05-29T04:55:55.476Z,11.23
2019-05-29T04:58:23.967Z,11.33
2019-05-29T05:00:58.898Z,11.35
2019-05-29T05:03:22.654Z,11.69
2019-05-29T05:05:51.122Z,11.81
2019-05-29T05:08:19.614Z,11.49
2019-05-29T05:10:48.084Z,11.34
2019-05-29T05:13:16.580Z,11.72
2019-05-29T05:15:46.683Z,11.97
2019-05-29T05:18:15.246Z,11.94
2019-05-29T05:20:43.712Z,11.57
2019-05-29T05:23:12.277Z,11.98
2019-05-29T05:25:41.158Z,12.22
2019-05-29T05:28:09.592Z,12.24
2019-05-29T05:30:38.501Z,12.13
2019-05-29T05:33:07.023Z,12.39
2019-05-29T05:35:36.828Z,12.24
2019-05-29T05:38:05.333Z,12.39
2019-05-29T05:40:37.140Z,12.42
2019-05-29T05:43:04.256Z,12.61
2019-05-29T05:45:33.023Z,12.48
2019-05-29T05:48:01.507Z,12.30
2019-05-29T05:50:30.994Z,12.31
2019-05-29T05:52:59.560Z,12.34
2019-05-29T05:55:28.120Z,12.30
2019-05-29T05:57:56.596Z,12.39
2019-05-29T06:00:33.934Z,12.38
2019-05-29T06:03:02.634Z,12.65
2019-05-29T06:05:32.107Z,12.64
2019-05-29T06:08:00.722Z,12.98
2019-05-29T06:10:29.217Z,13.21
2019-05-29T06:12:57.749Z,12.98
2019-05-29T06:15:26.341Z,13.24
2019-05-29T06:18:17.168Z,13.38
2019-05-29T06:20:25.069Z,13.50
2019-05-29T06:22:53.543Z,13.62
2019-05-29T06:25:22.104Z,13.64
2019-05-29T06:27:50.566Z,13.59
2019-05-29T06:30:20.392Z,13.77
2019-05-29T06:32:48.868Z,13.60
2019-05-29T06:35:18.000Z,13.68
2019-05-29T06:37:46.481Z,13.83
2019-05-29T06:40:18.095Z,13.95
2019-05-29T06:42:46.559Z,13.48
2019-05-29T06:45:18.163Z,13.24
2019-05-29T06:47:46.667Z,13.21
2019-05-29T06:50:15.225Z,13.26
2019-05-29T06:52:43.692Z,13.29
2019-05-29T06:55:12.209Z,13.46
2019-05-29T06:57:42.457Z,13.32
2019-05-29T07:00:11.087Z,13.25
2019-05-29T07:02:40.678Z,13.38
2019-05-29T07:05:09.335Z,12.98
2019-05-29T07:07:38.311Z,12.80
2019-05-29T07:10:07.631Z,13.19
2019-05-29T07:12:36.369Z,13.28
2019-05-29T07:15:08.071Z,13.32
2019-05-29T07:17:36.539Z,13.53
2019-05-29T07:20:06.390Z,13.57
2019-05-29T07:22:34.860Z,13.56
2019-05-29T07:25:04.231Z,13.23
2019-05-29T07:27:32.701Z,12.63
2019-05-29T07:30:01.202Z,13.08
2019-05-29T07:32:29.806Z,13.53
2019-05-29T07:35:03.633Z,13.37
2019-05-29T07:37:28.497Z,13.97
2019-05-29T07:39:56.986Z,14.24
2019-05-29T07:42:25.454Z,14.56
2019-05-29T07:44:53.929Z,14.64
2019-05-29T07:47:22.456Z,14.62
2019-05-29T07:49:51.009Z,14.56
2019-05-29T07:52:19.507Z,14.71
2019-05-29T07:54:48.212Z,14.10
2019-05-29T07:57:16.759Z,14.25
2019-05-29T07:59:45.238Z,13.85
2019-05-29T08:02:13.745Z,13.42
2019-05-29T08:04:43.048Z,14.06
2019-05-29T08:07:11.603Z,14.03
2019-05-29T08:09:41.275Z,14.03
2019-05-29T08:12:09.859Z,14.05
2019-05-29T08:14:39.555Z,14.13
2019-05-29T08:17:08.108Z,13.91
2019-05-29T08:19:36.582Z,14.06
2019-05-29T08:22:05.246Z,14.22
2019-05-29T08:24:33.707Z,13.89
2019-05-29T08:27:02.201Z,14.02
2019-05-29T08:29:30.690Z,14.08
2019-05-29T08:31:59.200Z,14.00
2019-05-29T08:34:27.668Z,14.29
2019-05-29T08:37:06.656Z,14.62
2019-05-29T08:39:36.192Z,15.13
2019-05-29T08:42:21.370Z,15.08
2019-05-29T08:44:26.962Z,15.34
2019-05-29T08:47:09.060Z,15.63
2019-05-29T08:49:25.676Z,15.72
2019-05-29T08:52:10.475Z,15.39
2019-05-29T08:54:24.555Z,15.01
2019-05-29T08:56:53.045Z,15.68
2019-05-29T08:59:21.527Z,15.90
2019-05-29T09:01:52.737Z,16.25
2019-05-29T09:04:20.298Z,16.24
2019-05-29T09:06:49.207Z,16.36
2019-05-29T09:09:17.773Z,16.42
2019-05-29T09:11:47.582Z,15.39
2019-05-29T09:14:16.116Z,15.42
2019-05-29T09:16:44.624Z,14.67
2019-05-29T09:19:14.173Z,15.20
2019-05-29T09:21:42.664Z,15.44
2019-05-29T09:24:11.178Z,15.29
2019-05-29T09:26:39.674Z,16.11
2019-05-29T09:29:08.145Z,16.84
2019-05-29T09:31:36.649Z,16.97
2019-05-29T09:34:05.201Z,17.65
2019-05-29T09:36:33.740Z,18.13
2019-05-29T09:39:02.191Z,17.66
2019-05-29T09:41:30.660Z,16.46
2019-05-29T09:44:00.298Z,16.03
2019-05-29T09:46:28.894Z,15.60
2019-05-29T09:49:00.735Z,15.65
2019-05-29T09:51:27.642Z,15.82
2019-05-29T09:53:58.195Z,15.82
2019-05-29T09:56:26.348Z,15.47
2019-05-29T09:58:56.372Z,15.95
2019-05-29T10:01:25.757Z,16.33
2019-05-29T10:03:56.395Z,16.67
2019-05-29T10:06:24.672Z,17.43
2019-05-29T10:08:54.241Z,17.39
2019-05-29T10:11:23.354Z,19.06
2019-05-29T10:13:51.846Z,18.19
2019-05-29T10:16:20.378Z,18.63
2019-05-29T10:18:48.867Z,18.62
2019-05-29T10:21:17.342Z,18.56
2019-05-29T10:23:45.831Z,18.26
2019-05-29T10:26:14.291Z,17.95
2019-05-29T10:28:55.845Z,17.19
2019-05-29T10:31:12.992Z,17.47
2019-05-29T10:33:42.372Z,17.54
2019-05-29T10:36:10.935Z,18.26
2019-05-29T10:38:39.498Z,17.23
2019-05-29T10:41:07.973Z,16.82
2019-05-29T10:43:36.484Z,16.65
2019-05-29T10:46:05.079Z,16.62
2019-05-29T10:48:33.640Z,16.88
2019-05-29T10:51:02.084Z,17.49
2019-05-29T10:53:30.583Z,18.06
2019-05-29T10:55:59.047Z,18.36
2019-05-29T10:58:27.544Z,19.75
2019-05-29T11:00:56.009Z,20.34
2019-05-29T11:03:24.506Z,19.67
2019-05-29T11:05:53.770Z,19.28
2019-05-29T11:08:22.366Z,18.46
2019-05-29T11:10:51.886Z,17.48
2019-05-29T11:13:20.500Z,18.24
2019-05-29T11:15:48.970Z,19.75
2019-05-29T11:18:17.465Z,19.64
2019-05-29T11:20:47.177Z,18.30
2019-05-29T11:23:15.697Z,18.78
2019-05-29T11:25:44.236Z,18.32
2019-05-29T11:28:12.729Z,16.55
2019-05-29T11:30:41.235Z,17.02
2019-05-29T11:33:09.768Z,17.13
2019-05-29T11:35:38.328Z,17.54
2019-05-29T11:38:06.785Z,19.10
2019-05-29T11:40:35.684Z,18.67
2019-05-29T11:43:04.326Z,18.27
2019-05-29T11:45:35.341Z,16.87
2019-05-29T11:48:05.131Z,17.25
2019-05-29T11:50:33.308Z,17.98
2019-05-29T11:53:02.676Z,17.87
2019-05-29T11:55:31.215Z,17.87
2019-05-29T11:58:00.120Z,18.52
2019-05-29T12:00:29.245Z,19.63
2019-05-29T12:02:57.889Z,21.45
2019-05-29T12:05:26.423Z,22.71
2019-05-29T12:07:55.484Z,23.54
2019-05-29T12:10:24.878Z,26.18
2019-05-29T12:12:53.501Z,23.24
2019-05-29T12:15:22.716Z,20.89
2019-05-29T12:17:59.070Z,19.45
2019-05-29T12:20:28.101Z,18.22
2019-05-29T12:23:13.279Z,17.80
2019-05-29T12:25:21.855Z,17.67
2019-05-29T12:27:50.612Z,17.39
2019-05-29T12:30:19.647Z,17.31
2019-05-29T12:32:48.142Z,17.87
2019-05-29T12:35:16.872Z,18.21
2019-05-29T12:37:45.362Z,18.68
2019-05-29T12:40:14.058Z,18.05
2019-05-29T12:42:44.949Z,18.83
2019-05-29T12:45:13.139Z,19.52
2019-05-29T12:47:41.580Z,19.96
2019-05-29T12:50:11.601Z,21.22
2019-05-29T12:52:40.062Z,22.59
2019-05-29T12:55:09.409Z,24.41
2019-05-29T12:57:37.884Z,24.59
2019-05-29T13:00:12.138Z,25.22
2019-05-29T13:02:40.673Z,26.39
2019-05-29T13:05:18.005Z,26.47
2019-05-29T13:07:41.652Z,26.27
2019-05-29T13:10:27.241Z,25.76
2019-05-29T13:12:42.257Z,25.20
2019-05-29T13:15:12.999Z,25.86
2019-05-29T13:17:41.524Z,24.53
2019-05-29T13:20:21.091Z,25.67
2019-05-29T13:22:40.894Z,25.00
2019-05-29T13:25:12.163Z,26.12
2019-05-29T13:27:40.033Z,26.54
2019-05-29T13:30:12.918Z,26.70
2019-05-29T13:32:41.476Z,25.29
2019-05-29T13:35:11.657Z,23.66
2019-05-29T13:37:40.087Z,23.06
2019-05-29T13:40:09.622Z,24.46
2019-05-29T13:42:38.098Z,24.22
2019-05-29T13:45:16.775Z,22.53
2019-05-29T13:47:37.721Z,21.11
2019-05-29T13:50:11.955Z,19.93
2019-05-29T13:52:38.245Z,19.95
2019-05-29T13:55:07.761Z,19.86
2019-05-29T13:57:39.560Z,19.81
2019-05-29T14:00:30.355Z,19.59
2019-05-29T14:02:39.163Z,19.82
2019-05-29T14:05:08.811Z,19.34
2019-05-29T14:07:37.337Z,19.27
2019-05-29T14:10:07.758Z,20.07
2019-05-29T14:12:39.468Z,21.54
2019-05-29T14:15:08.964Z,22.23
2019-05-29T14:17:37.904Z,21.52
2019-05-29T14:20:08.996Z,21.51
2019-05-29T14:22:37.609Z,22.19
2019-05-29T14:25:09.544Z,22.11
2019-05-29T14:27:38.175Z,22.11
2019-05-29T14:30:11.095Z,21.64
2019-05-29T14:32:39.727Z,19.99
2019-05-29T14:35:10.803Z,18.63
2019-05-29T14:37:39.015Z,18.77
2019-05-29T14:40:08.121Z,18.78
2019-05-29T14:42:36.651Z,18.80
2019-05-29T14:45:08.159Z,18.73
2019-05-29T14:47:36.734Z,18.86
2019-05-29T14:50:09.115Z,18.52
2019-05-29T14:52:38.142Z,18.80
2019-05-29T14:55:09.029Z,19.21
2019-05-29T14:57:38.397Z,19.18
2019-05-29T15:00:18.881Z,19.03
2019-05-29T15:02:38.503Z,18.75
2019-05-29T15:05:09.773Z,18.75
2019-05-29T15:07:38.408Z,19.96
2019-05-29T15:10:21.755Z,21.04
2019-05-29T15:12:39.003Z,23.47
2019-05-29T15:15:09.047Z,23.68
2019-05-29T15:17:37.964Z,23.12
2019-05-29T15:20:12.599Z,21.44
2019-05-29T15:22:41.193Z,22.80
2019-05-29T15:25:18.563Z,23.57
2019-05-29T15:27:40.424Z,24.42
2019-05-29T15:30:11.339Z,23.41
2019-05-29T15:32:40.043Z,22.82
2019-05-29T15:35:14.443Z,22.69
2019-05-29T15:37:40.800Z,21.89
2019-05-29T15:40:10.902Z,21.13
2019-05-29T15:42:39.781Z,20.28
2019-05-29T15:45:10.071Z,19.57
2019-05-29T15:47:38.608Z,19.69
2019-05-29T15:50:09.297Z,19.44
2019-05-29T15:52:37.891Z,19.43
2019-05-29T15:55:27.362Z,19.60
2019-05-29T15:57:40.454Z,19.33
2019-05-29T16:00:11.372Z,19.40
2019-05-29T16:02:40.047Z,19.52
2019-05-29T16:05:10.917Z,19.13
2019-05-29T16:07:39.895Z,18.97
2019-05-29T16:10:14.416Z,20.28
2019-05-29T16:12:41.420Z,22.27
2019-05-29T16:15:11.302Z,23.08
2019-05-29T16:17:39.939Z,22.12
2019-05-29T16:20:10.379Z,20.70
2019-05-29T16:22:39.113Z,20.18
2019-05-29T16:25:08.146Z,20.62
2019-05-29T16:27:36.747Z,20.92
2019-05-29T16:30:11.318Z,21.14
2019-05-29T16:32:40.126Z,21.86
2019-05-29T16:35:09.227Z,23.18
2019-05-29T16:37:37.707Z,22.05
2019-05-29T16:40:09.232Z,20.08
2019-05-29T16:42:37.727Z,18.98
2019-05-29T16:45:09.610Z,21.15
2019-05-29T16:47:38.358Z,22.19
2019-05-29T16:50:08.474Z,21.84
2019-05-29T16:52:37.375Z,21.82
2019-05-29T16:55:06.722Z,20.91
2019-05-29T16:57:35.369Z,19.96
2019-05-29T17:00:06.505Z,19.35
2019-05-29T17:02:34.971Z,18.60
2019-05-29T17:05:04.905Z,18.37
2019-05-29T17:07:33.374Z,18.37
2019-05-29T17:10:02.035Z,19.73
2019-05-29T17:12:30.629Z,20.49
2019-05-29T17:14:59.143Z,19.88
2019-05-29T17:17:30.469Z,18.89
2019-05-29T17:19:57.979Z,18.78
2019-05-29T17:22:26.531Z,19.69
2019-05-29T17:24:55.014Z,19.48
2019-05-29T17:27:23.503Z,20.07
2019-05-29T17:29:51.996Z,18.91
2019-05-29T17:32:21.143Z,20.17
2019-05-29T17:34:49.803Z,20.41
2019-05-29T17:37:19.073Z,20.34
2019-05-29T17:39:47.562Z,20.28
2019-05-29T17:42:16.133Z,20.10
2019-05-29T17:44:44.616Z,19.86
2019-05-29T17:47:13.145Z,19.38
2019-05-29T17:49:41.626Z,19.05
2019-05-29T17:52:10.103Z,18.71
2019-05-29T17:54:38.605Z,18.43
2019-05-29T17:57:07.156Z,18.64
2019-05-29T17:59:35.672Z,18.39
2019-05-29T18:02:04.478Z,18.91
2019-05-29T18:04:32.999Z,18.95
2019-05-29T18:07:01.490Z,18.87
2019-05-29T18:09:29.982Z,18.96
2019-05-29T18:11:58.460Z,18.90
2019-05-29T18:14:27.543Z,18.92
2019-05-29T18:16:56.034Z,18.69
2019-05-29T18:19:25.777Z,18.31
2019-05-29T18:21:54.326Z,18.03
2019-05-29T18:24:23.760Z,17.61
2019-05-29T18:26:52.437Z,17.09
2019-05-29T18:29:22.325Z,16.56
2019-05-29T18:31:50.811Z,16.24
2019-05-29T18:34:20.735Z,15.86
2019-05-29T18:36:49.265Z,15.45
2019-05-29T18:39:17.763Z,15.35
2019-05-29T18:41:46.226Z,15.24
2019-05-29T18:44:14.688Z,15.05
2019-05-29T18:46:43.188Z,14.85
2019-05-29T18:49:14.548Z,14.62
2019-05-29T18:51:41.945Z,14.43
2019-05-29T18:54:10.416Z,14.27
2019-05-29T18:56:38.929Z,14.07
2019-05-29T18:59:07.370Z,13.87
2019-05-29T19:01:35.867Z,13.71
2019-05-29T19:04:04.404Z,13.53
2019-05-29T19:06:32.969Z,13.37
2019-05-29T19:09:01.443Z,13.20
2019-05-29T19:11:30.057Z,13.04
2019-05-29T19:13:58.482Z,12.90
2019-05-29T19:16:27.993Z,12.73
2019-05-29T19:18:56.510Z,12.55
2019-05-29T19:21:26.309Z,12.42
2019-05-29T19:23:54.871Z,12.23
2019-05-29T19:26:24.663Z,12.04
2019-05-29T19:28:53.197Z,11.87
2019-05-29T19:31:22.900Z,11.72
2019-05-29T19:33:51.441Z,11.56
2019-05-29T19:36:19.938Z,11.47
2019-05-29T19:38:48.427Z,11.30
2019-05-29T19:41:16.933Z,11.14
2019-05-29T19:43:45.401Z,11.02
2019-05-29T19:46:13.902Z,10.89
2019-05-29T19:48:42.375Z,10.77
2019-05-29T19:51:10.866Z,10.64
2019-05-29T19:53:39.340Z,10.57
2019-05-29T19:56:07.908Z,10.48
2019-05-29T19:58:36.384Z,10.38
2019-05-29T20:01:05.186Z,10.32
2019-05-29T20:03:34.662Z,10.21
2019-05-29T20:06:03.199Z,10.13
2019-05-29T20:08:34.374Z,10.07
2019-05-29T20:11:01.893Z,10.02
2019-05-29T20:13:31.644Z,9.98
2019-05-29T20:16:00.160Z,9.94
2019-05-29T20:18:28.626Z,9.90
2019-05-29T20:20:57.126Z,9.84
2019-05-29T20:23:25.596Z,9.85
2019-05-29T20:25:54.080Z,9.74
2019-05-29T20:28:22.543Z,9.67
2019-05-29T20:30:51.046Z,9.56
2019-05-29T20:33:19.488Z,9.49
2019-05-29T20:35:47.974Z,9.42
2019-05-29T20:38:16.444Z,9.38
2019-05-29T20:40:44.962Z,9.35
2019-05-29T20:43:13.423Z,9.33
2019-05-29T20:45:41.894Z,9.26
2019-05-29T20:48:10.551Z,9.17
2019-05-29T20:50:39.200Z,9.10
2019-05-29T20:53:07.767Z,9.01
2019-05-29T20:55:36.275Z,8.97
2019-05-29T20:58:04.819Z,8.93
2019-05-29T21:00:33.936Z,8.88
2019-05-29T21:03:02.500Z,8.84
2019-05-29T21:05:30.965Z,8.82
2019-05-29T21:07:59.478Z,8.82
2019-05-29T21:10:27.917Z,8.79
2019-05-29T21:12:56.503Z,8.76
2019-05-29T21:15:25.067Z,8.69
2019-05-29T21:17:53.557Z,8.60
2019-05-29T21:20:22.184Z,8.55
2019-05-29T21:22:50.670Z,8.48
2019-05-29T21:25:19.619Z,8.45
2019-05-29T21:27:49.603Z,8.44
2019-05-29T21:30:23.507Z,8.46
2019-05-29T21:32:52.177Z,8.48
2019-05-29T21:35:20.640Z,8.43
2019-05-29T21:37:49.126Z,8.39
2019-05-29T21:40:17.939Z,8.39
2019-05-29T21:42:46.988Z,8.34
2019-05-29T21:45:15.707Z,8.33
2019-05-29T21:47:45.064Z,8.29
2019-05-29T21:50:13.725Z,8.28
2019-05-29T21:52:43.505Z,8.15
2019-05-29T21:55:12.604Z,8.08
2019-05-29T21:57:43.945Z,8.10
2019-05-29T22:00:15.208Z,8.08
2019-05-29T22:02:44.429Z,8.03
2019-05-29T22:05:13.723Z,7.97
2019-05-29T22:07:42.783Z,7.97
2019-05-29T22:10:12.787Z,7.99
2019-05-29T22:12:41.255Z,7.87
2019-05-29T22:15:10.099Z,7.83
2019-05-29T22:17:38.618Z,7.79
2019-05-29T22:20:07.856Z,7.74
2019-05-29T22:22:36.327Z,7.73
2019-05-29T22:25:08.863Z,7.71
2019-05-29T22:27:38.152Z,7.70
2019-05-29T22:30:07.781Z,7.70
2019-05-29T22:32:36.254Z,7.74
2019-05-29T22:35:06.072Z,7.71
2019-05-29T22:37:34.566Z,7.65
2019-05-29T22:40:03.707Z,7.61
2019-05-29T22:42:32.163Z,7.57
2019-05-29T22:45:02.108Z,7.54
2019-05-29T22:47:30.705Z,7.55
2019-05-29T22:49:59.870Z,7.53
2019-05-29T22:52:28.337Z,7.52
2019-05-29T22:54:57.995Z,7.44
2019-05-29T22:57:26.577Z,7.39
2019-05-29T22:59:55.915Z,7.32
2019-05-29T23:02:24.546Z,7.21
2019-05-29T23:04:54.149Z,7.19
2019-05-29T23:07:22.684Z,7.19
2019-05-29T23:09:52.103Z,7.19
2019-05-29T23:12:20.611Z,7.19
2019-05-29T23:14:49.102Z,7.19
2019-05-29T23:17:17.567Z,7.19
2019-05-29T23:19:46.078Z,7.16
2019-05-29T23:22:14.511Z,7.09
2019-05-29T23:24:43.005Z,7.01
2019-05-29T23:27:11.473Z,6.95
2019-05-29T23:29:48.926Z,6.94
2019-05-29T23:32:10.162Z,6.93
2019-05-29T23:34:38.655Z,6.93
2019-05-29T23:37:07.119Z,6.99
2019-05-29T23:39:35.616Z,6.98
2019-05-29T23:42:04.092Z,6.96
2019-05-29T23:44:32.640Z,6.94
2019-05-29T23:47:01.790Z,6.89
2019-05-29T23:49:30.377Z,6.84
2019-05-29T23:51:59.676Z,6.85
2019-05-29T23:54:28.222Z,6.83
2019-05-29T23:56:57.850Z,6.92
2019-05-29T23:59:26.441Z,6.93
